Flight Track Log - Related Links

Times and Time Zones

All times are in EDT time to prevent confusion due to time zone crossing. See the SLI2167 flight status page for this flight to view local times or setup timezone preferences in your user account.

Time Position Orientation Groundspeed Altitude Reporting Facility
EDT Latitude Longitude Course Direction KTS MPH feet Rate Location/Type
Sat 06:24:37 PM 33.9447 -118.4606 236° Southwest 177 204 2,300  Level Los Angeles Center
Sat 06:25:39 PM 33.9097 -118.5231 236° Southwest 262 302 5,600 3,484 Climbing Los Angeles Center
Sat 06:26:41 PM 33.8322 -118.5269 182° South 295 339 9,500 3,073 Climbing Los Angeles Center
Sat 06:27:42 PM 33.7428 -118.5097 171° South 345 397 11,900 2,488 Climbing Los Angeles Center
Sat 06:28:44 PM 33.6428 -118.4725 163° South 399 459 14,600 3,097 Climbing Los Angeles Center
Sat 06:29:46 PM 33.5717 -118.3350 122° Southeast 408 470 18,300 3,122 Climbing Los Angeles Center
Sat 06:30:47 PM 33.4900 -118.2258 132° Southeast 436 502 21,000 2,634 Climbing Los Angeles Center
Sat 06:31:49 PM 33.4067 -118.1122 131° Southeast 450 518 23,700 2,419 Climbing Los Angeles Center
Sat 06:32:51 PM 33.3208 -117.9958 131° Southeast 464 534 26,000 2,049 Climbing Los Angeles Center
Sat 06:33:52 PM 33.2317 -117.8750 131° Southeast 478 550 27,900 1,805 Climbing Los Angeles Center
Sat 06:34:54 PM 33.1397 -117.7511 132° Southeast 495 570 29,700 1,742 Climbing Los Angeles Center
Sat 06:35:56 PM 33.0269 -117.5992 131° Southeast 507 583 31,500 1,659 Climbing Los Angeles Center
Sat 06:36:57 PM 32.9306 -117.4692 131° Southeast 521 600 33,100 1,707 Climbing Los Angeles Center
Sat 06:37:59 PM 32.8336 -117.3408 132° Southeast 524 603 35,000 1,694 Climbing Los Angeles Center
Sat 06:39:01 PM 32.7378 -117.2156 132° Southeast 518 596 36,600 968 Climbing Los Angeles Center
Sat 06:40:03 PM 32.6433 -117.0892 132° Southeast 516 594 37,000 195 Climbing Los Angeles Center
Sat 06:41:04 PM 32.5483 -116.9700 133° Southeast 507 583 37,000  Level Los Angeles Center
Sat 06:42:06 PM 32.4025 -116.8833 153° Southeast 494 568 37,000  Level Los Angeles Center
Sat 06:44:00 PM 32.1966 -116.7767 158° South  Level FlightAware Approximate
Sat 06:51:00 PM 31.4191 -116.3964 157° South  Level FlightAware Approximate
Sat 06:52:00 PM 31.3081 -116.3420 157° South  Level FlightAware Approximate
Sat 06:53:00 PM 31.1971 -116.2877 157° South  Level FlightAware Approximate
Sat 06:54:00 PM 31.0861 -116.2336 157° South  Level FlightAware Approximate
Sat 06:55:00 PM 30.9751 -116.1796 157° South  Level FlightAware Approximate
Sat 06:56:00 PM 30.8640 -116.1257 157° South  Level FlightAware Approximate
Sat 06:57:00 PM 30.7530 -116.0719 157° South  Level FlightAware Approximate
Sat 06:58:00 PM 30.6419 -116.0183 157° South  Level FlightAware Approximate
Sat 06:59:00 PM 30.5307 -115.9648 157° South  Level FlightAware Approximate
Sat 07:00:00 PM 30.4409 -115.8759 133° Southeast  Level FlightAware Approximate
Sat 07:01:00 PM 30.3591 -115.7736 133° Southeast  Level FlightAware Approximate
Sat 07:02:00 PM 30.2773 -115.6714 133° Southeast  Level FlightAware Approximate
Sat 07:03:00 PM 30.1948 -115.5702 134° Southeast  Level FlightAware Approximate
Sat 07:04:00 PM 30.1114 -115.4699 134° Southeast  Level FlightAware Approximate
Sat 07:05:00 PM 30.0280 -115.3698 134° Southeast  Level FlightAware Approximate
Sat 07:06:00 PM 29.9444 -115.2698 134° Southeast  Level FlightAware Approximate
Sat 07:07:00 PM 29.8608 -115.1700 134° Southeast  Level FlightAware Approximate
Sat 07:08:00 PM 29.7772 -115.0704 134° Southeast  Level FlightAware Approximate
Sat 07:09:00 PM 29.6934 -114.9710 134° Southeast  Level FlightAware Approximate
Sat 07:10:00 PM 29.6096 -114.8717 134° Southeast  Level FlightAware Approximate
Sat 07:11:00 PM 29.5257 -114.7726 134° Southeast  Level FlightAware Approximate
Sat 07:12:00 PM 29.4419 -114.6735 134° Southeast  Level FlightAware Approximate
Sat 07:13:00 PM 29.3590 -114.5734 134° Southeast  Level FlightAware Approximate
Sat 07:14:00 PM 29.2760 -114.4735 134° Southeast  Level FlightAware Approximate
Sat 07:15:00 PM 29.1930 -114.3738 134° Southeast  Level FlightAware Approximate
Sat 07:16:00 PM 29.1099 -114.2742 134° Southeast  Level FlightAware Approximate
Sat 07:17:00 PM 29.0267 -114.1748 134° Southeast  Level FlightAware Approximate
Sat 07:18:00 PM 28.9432 -114.0757 135° Southeast  Level FlightAware Approximate
Sat 07:19:00 PM 28.8575 -113.9793 135° Southeast  Level FlightAware Approximate
Sat 07:20:00 PM 28.7717 -113.8830 135° Southeast  Level FlightAware Approximate
Sat 07:21:00 PM 28.6859 -113.7869 136° Southeast  Level FlightAware Approximate
Sat 07:22:00 PM 28.6000 -113.6910 136° Southeast  Level FlightAware Approximate
Sat 07:23:00 PM 28.5140 -113.5952 136° Southeast  Level FlightAware Approximate
Sat 07:24:00 PM 28.4280 -113.4996 136° Southeast  Level FlightAware Approximate
Sat 07:25:00 PM 28.3419 -113.4041 136° Southeast  Level FlightAware Approximate
Sat 07:26:00 PM 28.2557 -113.3088 136° Southeast  Level FlightAware Approximate
Sat 07:27:00 PM 28.1694 -113.2136 136° Southeast  Level FlightAware Approximate
Sat 07:28:00 PM 28.0831 -113.1186 136° Southeast  Level FlightAware Approximate
Sat 07:29:00 PM 27.9967 -113.0238 136° Southeast  Level FlightAware Approximate
Sat 07:30:00 PM 27.9103 -112.9291 136° Southeast  Level FlightAware Approximate
Sat 07:31:00 PM 27.8238 -112.8345 136° Southeast  Level FlightAware Approximate
Sat 07:32:00 PM 27.7372 -112.7401 136° Southeast  Level FlightAware Approximate
Sat 07:33:00 PM 27.6506 -112.6459 136° Southeast  Level FlightAware Approximate
Sat 07:34:00 PM 27.5639 -112.5518 136° Southeast  Level FlightAware Approximate
Sat 07:35:00 PM 27.4771 -112.4578 136° Southeast  Level FlightAware Approximate
Sat 07:36:00 PM 27.3903 -112.3640 136° Southeast  Level FlightAware Approximate
Sat 07:37:00 PM 27.3034 -112.2703 136° Southeast  Level FlightAware Approximate
Sat 07:38:00 PM 27.2006 -112.2003 149° Southeast  Level FlightAware Approximate
Sat 07:39:00 PM 27.0981 -112.1295 147° Southeast  Level FlightAware Approximate
Sat 07:40:00 PM 26.9966 -112.0570 148° Southeast  Level FlightAware Approximate
Sat 07:41:00 PM 26.8951 -111.9847 148° Southeast  Level FlightAware Approximate
Sat 07:42:00 PM 26.7936 -111.9124 148° Southeast  Level FlightAware Approximate
Sat 07:43:00 PM 26.6919 -111.8403 148° Southeast  Level FlightAware Approximate
Sat 07:44:00 PM 26.5903 -111.7683 148° Southeast  Level FlightAware Approximate
Sat 07:45:00 PM 26.4886 -111.6964 148° Southeast  Level FlightAware Approximate
Sat 07:46:00 PM 26.3869 -111.6247 148° Southeast  Level FlightAware Approximate
Sat 07:47:00 PM 26.2852 -111.5531 148° Southeast  Level FlightAware Approximate
Sat 07:48:00 PM 26.1814 -111.4855 152° Southeast  Level FlightAware Approximate
Sat 07:49:00 PM 26.0755 -111.4219 152° Southeast  Level FlightAware Approximate
Sat 07:50:00 PM 25.9784 -111.3431 143° Southeast  Level FlightAware Approximate
Sat 07:51:00 PM 25.8686 -111.2897 158° South  Level FlightAware Approximate
Sat 07:52:00 PM 25.7606 -111.2316 151° Southeast  Level FlightAware Approximate
Sat 07:53:00 PM 25.6562 -111.1652 149° Southeast  Level FlightAware Approximate
Sat 07:54:00 PM 25.5470 -111.1097 157° South  Level FlightAware Approximate
Sat 07:55:00 PM 25.4362 -111.0580 157° South  Level FlightAware Approximate
Sat 07:56:00 PM 25.3283 -110.9994 151° Southeast  Level FlightAware Approximate
Sat 07:57:00 PM 25.2232 -110.9348 151° Southeast  Level FlightAware Approximate
Sat 07:58:00 PM 25.1164 -110.8737 155° Southeast  Level FlightAware Approximate
Sat 07:59:00 PM 25.0077 -110.8169 155° Southeast  Level FlightAware Approximate
Sat 08:00:00 PM 24.8990 -110.7602 155° Southeast  Level FlightAware Approximate
Sat 08:01:00 PM 24.7902 -110.7036 155° Southeast  Level FlightAware Approximate
Sat 08:02:00 PM 24.6827 -110.6441 153° Southeast  Level FlightAware Approximate
Sat 08:03:00 PM 24.5742 -110.5871 156° South  Level FlightAware Approximate
Sat 08:04:00 PM 24.4647 -110.5323 156° South  Level FlightAware Approximate
Sat 08:05:00 PM 24.3567 -110.4741 153° Southeast  Level FlightAware Approximate
Sat 08:06:00 PM 24.2484 -110.4212 149° Southeast  Level FlightAware Approximate
Sat 08:07:00 PM 24.1437 -110.3562 151° Southeast  Level FlightAware Approximate
Sat 08:08:00 PM 24.0667 -110.3500 270° West  Level FlightAware Approximate
Sat 08:09:00 PM 24.0727 -110.3625 270° West  Level Estimated
Sat 08:10:00 PM 24.0727 -110.3625 270° West  Level Estimated
Sat 08:11:00 PM 24.0727 -110.3625 270° West  Level Estimated
Sat 08:12:00 PM 24.0727 -110.3625 270° West  Level Estimated
Sat 08:13:00 PM 24.0727 -110.3625 270° West  Level Estimated
Sat 08:14:00 PM 24.0727 -110.3625 270° West  Level Estimated
Sat 08:15:00 PM 24.0727 -110.3625 270° West  Level Estimated
Sat 08:16:00 PM 24.0727 -110.3625 270° West  Level Estimated
Sat 08:17:00 PM 24.0727 -110.3625 270° West  Level Estimated
Sat 08:18:00 PM 24.0727 -110.3625 270° West  Level Estimated
Sat 08:19:00 PM 24.0727 -110.3625 270° West  Level Estimated
Sat 08:20:00 PM 24.0727 -110.3625 270° West  Level Estimated
Sat 08:21:00 PM 24.0727 -110.3625 270° West  Level Estimated
Sat 08:22:00 PM 24.0727 -110.3625 270° West  Level Estimated

Login

Don't have an account? Register now (free) for customized features, flight alerts, and more!